createdAt,value
2018-08-06T00:00:02.260Z,101220.27
2018-08-06T00:02:35.630Z,101228.15
2018-08-06T00:05:08.940Z,101225.76
2018-08-06T00:07:42.319Z,101220.85
2018-08-06T00:10:19.197Z,101223.87
2018-08-06T00:12:52.632Z,101223.25
2018-08-06T00:15:26.018Z,101217.17
2018-08-06T00:17:59.385Z,101221.13
2018-08-06T00:20:32.697Z,101222.47
2018-08-06T00:23:06.160Z,101213.88
2018-08-06T00:25:39.492Z,101214.00
2018-08-06T00:28:12.800Z,101209.89
2018-08-06T00:30:46.112Z,101211.02
2018-08-06T00:33:19.464Z,101198.33
2018-08-06T00:35:52.761Z,101204.99
2018-08-06T00:38:26.104Z,101202.11
2018-08-06T00:40:59.398Z,101204.61
2018-08-06T00:43:32.733Z,101201.41
2018-08-06T00:46:06.249Z,101195.45
2018-08-06T00:48:39.645Z,101191.34
2018-08-06T00:51:12.981Z,101193.20
2018-08-06T00:53:46.315Z,101188.64
2018-08-06T00:56:19.677Z,101187.89
2018-08-06T00:58:53.036Z,101187.61
2018-08-06T01:01:26.356Z,101189.37
2018-08-06T01:03:59.698Z,101185.09
2018-08-06T01:06:33.013Z,101194.42
2018-08-06T01:09:08.513Z,101196.69
2018-08-06T01:11:41.824Z,101191.23
2018-08-06T01:14:15.141Z,101189.67
2018-08-06T01:16:48.429Z,101188.99
2018-08-06T01:19:21.745Z,101185.95
2018-08-06T01:21:55.082Z,101189.80
2018-08-06T01:24:28.440Z,101186.11
2018-08-06T01:27:01.890Z,101186.64
2018-08-06T01:29:35.206Z,101187.39
2018-08-06T01:32:08.637Z,101186.53
2018-08-06T01:34:41.956Z,101185.04
2018-08-06T01:37:15.324Z,101185.02
2018-08-06T01:39:48.624Z,101174.58
2018-08-06T01:42:21.909Z,101174.23
2018-08-06T01:44:55.257Z,101167.80
2018-08-06T01:47:28.646Z,101169.06
2018-08-06T01:50:01.999Z,101174.23
2018-08-06T01:52:35.362Z,101178.63
2018-08-06T01:55:08.676Z,101173.89
2018-08-06T01:57:42.132Z,101167.65
2018-08-06T02:00:16.621Z,101166.44
2018-08-06T02:02:49.978Z,101166.08
2018-08-06T02:05:23.309Z,101162.80
2018-08-06T02:07:56.661Z,101165.36
2018-08-06T02:10:36.940Z,101163.28
2018-08-06T02:13:10.310Z,101165.02
2018-08-06T02:15:43.633Z,101154.22
2018-08-06T02:18:16.977Z,101150.41
2018-08-06T02:20:50.332Z,101147.84
2018-08-06T02:23:23.713Z,101148.81
2018-08-06T02:25:57.080Z,101149.13
2018-08-06T02:28:30.433Z,101155.50
2018-08-06T02:31:03.803Z,101147.09
2018-08-06T02:33:37.591Z,101157.48
2018-08-06T02:36:10.975Z,101152.81
2018-08-06T02:38:44.429Z,101152.81
2018-08-06T02:41:17.765Z,101147.23
2018-08-06T02:43:51.077Z,101150.30
2018-08-06T02:46:24.397Z,101148.25
2018-08-06T02:48:57.776Z,101151.61
2018-08-06T02:51:31.100Z,101149.86
2018-08-06T02:54:04.493Z,101148.20
2018-08-06T02:56:37.865Z,101152.20
2018-08-06T02:59:11.205Z,101150.92
2018-08-06T03:01:44.509Z,101145.78
2018-08-06T03:04:17.841Z,101148.63
2018-08-06T03:06:51.165Z,101143.61
2018-08-06T03:09:24.493Z,101147.07
2018-08-06T03:11:57.842Z,101143.50
2018-08-06T03:14:31.164Z,101146.07
2018-08-06T03:17:04.519Z,101145.37
2018-08-06T03:19:37.846Z,101146.21
2018-08-06T03:22:11.170Z,101148.84
2018-08-06T03:24:44.481Z,101154.47
2018-08-06T03:27:17.977Z,101151.06
2018-08-06T03:29:51.326Z,101148.08
2018-08-06T03:32:24.634Z,101152.37
2018-08-06T03:34:57.991Z,101152.54
2018-08-06T03:37:31.301Z,101151.72
2018-08-06T03:40:05.153Z,101145.48
2018-08-06T03:42:38.456Z,101150.24
2018-08-06T03:45:18.324Z,101148.13
2018-08-06T03:47:51.629Z,101144.73
2018-08-06T03:50:24.924Z,101148.76
2018-08-06T03:52:58.246Z,101149.92
2018-08-06T03:55:31.669Z,101154.65
2018-08-06T03:58:05.069Z,101152.61
2018-08-06T04:00:38.408Z,101151.72
2018-08-06T04:03:11.723Z,101149.14
2018-08-06T04:05:45.045Z,101148.36
2018-08-06T04:08:18.332Z,101149.59
2018-08-06T04:10:51.671Z,101149.52
2018-08-06T04:13:25.044Z,101152.28
2018-08-06T04:15:58.327Z,101146.66
2018-08-06T04:18:31.668Z,101144.09
2018-08-06T04:21:05.005Z,101149.66
2018-08-06T04:23:38.332Z,101150.95
2018-08-06T04:26:11.650Z,101150.12
2018-08-06T04:28:44.948Z,101148.70
2018-08-06T04:31:18.249Z,101150.30
2018-08-06T04:33:51.573Z,101152.16
2018-08-06T04:36:25.082Z,101156.98
2018-08-06T04:38:58.425Z,101160.38
2018-08-06T04:41:31.728Z,101161.84
2018-08-06T04:44:05.068Z,101153.17
2018-08-06T04:46:38.412Z,101153.02
2018-08-06T04:49:11.713Z,101150.17
2018-08-06T04:51:45.058Z,101150.95
2018-08-06T04:54:18.360Z,101154.69
2018-08-06T04:56:51.693Z,101156.59
2018-08-06T04:59:25.025Z,101162.86
2018-08-06T05:01:58.365Z,101164.17
2018-08-06T05:04:31.670Z,101161.94
2018-08-06T05:07:05.230Z,101169.27
2018-08-06T05:09:39.178Z,101172.93
2018-08-06T05:12:12.535Z,101174.84
2018-08-06T05:14:45.836Z,101168.16
2018-08-06T05:17:19.157Z,101170.92
2018-08-06T05:19:52.493Z,101172.86
2018-08-06T05:22:25.817Z,101169.38
2018-08-06T05:24:59.137Z,101168.92
2018-08-06T05:27:32.444Z,101163.75
2018-08-06T05:30:07.786Z,101164.16
2018-08-06T05:32:41.113Z,101167.64
2018-08-06T05:35:14.487Z,101167.95
2018-08-06T05:37:47.792Z,101169.60
2018-08-06T05:40:21.138Z,101169.41
2018-08-06T05:42:54.485Z,101167.92
2018-08-06T05:45:27.833Z,101172.70
2018-08-06T05:48:01.110Z,101168.77
2018-08-06T05:50:34.439Z,101167.03
2018-08-06T05:53:07.786Z,101166.21
2018-08-06T05:55:41.098Z,101168.07
2018-08-06T05:58:14.454Z,101165.55
2018-08-06T06:00:48.062Z,101168.38
2018-08-06T06:03:21.388Z,101165.71
2018-08-06T06:05:54.748Z,101161.98
2018-08-06T06:08:28.051Z,101166.29
2018-08-06T06:11:01.360Z,101155.97
2018-08-06T06:13:35.006Z,101156.03
2018-08-06T06:16:08.845Z,101157.52
2018-08-06T06:18:42.226Z,101157.87
2018-08-06T06:21:15.557Z,101154.53
2018-08-06T06:23:48.853Z,101149.42
2018-08-06T06:26:22.189Z,101153.94
2018-08-06T06:28:55.509Z,101152.05
2018-08-06T06:31:28.850Z,101152.69
2018-08-06T06:34:02.189Z,101148.98
2018-08-06T06:36:35.520Z,101146.08
2018-08-06T06:39:10.465Z,101141.52
2018-08-06T06:41:44.674Z,101136.36
2018-08-06T06:44:17.988Z,101134.43
2018-08-06T06:46:51.325Z,101131.58
2018-08-06T06:49:24.637Z,101129.73
2018-08-06T06:51:57.973Z,101136.89
2018-08-06T06:54:31.330Z,101132.30
2018-08-06T06:57:04.678Z,101129.15
2018-08-06T06:59:38.005Z,101134.42
2018-08-06T07:02:11.542Z,101134.47
2018-08-06T07:04:44.890Z,101131.88
2018-08-06T07:07:18.229Z,101134.98
2018-08-06T07:09:51.557Z,101129.64
2018-08-06T07:12:24.893Z,101130.14
2018-08-06T07:14:58.210Z,101135.45
2018-08-06T07:17:31.578Z,101138.23
2018-08-06T07:20:05.829Z,101139.42
2018-08-06T07:22:39.189Z,101136.19
2018-08-06T07:25:12.897Z,101139.37
2018-08-06T07:27:46.276Z,101129.27
2018-08-06T07:30:19.612Z,101126.28
2018-08-06T07:32:52.949Z,101130.88
2018-08-06T07:35:26.296Z,101123.27
2018-08-06T07:37:59.640Z,101127.02
2018-08-06T07:40:33.025Z,101121.67
2018-08-06T07:43:06.456Z,101114.05
2018-08-06T07:45:39.789Z,101116.79
2018-08-06T07:48:13.179Z,101105.88
2018-08-06T07:50:46.513Z,101102.30
2018-08-06T07:53:19.857Z,101106.67
2018-08-06T07:55:53.177Z,101101.83
2018-08-06T07:58:26.549Z,101106.04
2018-08-06T08:00:59.890Z,101109.41
2018-08-06T08:03:33.261Z,101100.63
2018-08-06T08:06:07.360Z,101098.88
2018-08-06T08:08:40.716Z,101098.94
2018-08-06T08:11:14.038Z,101089.19
2018-08-06T08:13:47.381Z,101094.08
2018-08-06T08:16:20.729Z,101090.77
2018-08-06T08:18:54.091Z,101093.81
2018-08-06T08:21:27.482Z,101092.39
2018-08-06T08:24:01.198Z,101087.09
2018-08-06T08:26:34.592Z,101091.92
2018-08-06T08:29:07.929Z,101085.79
2018-08-06T08:31:41.254Z,101078.22
2018-08-06T08:34:14.580Z,101072.53
2018-08-06T08:36:47.929Z,101065.87
2018-08-06T08:39:21.272Z,101062.16
2018-08-06T08:41:54.843Z,101064.50
2018-08-06T08:44:28.185Z,101063.87
2018-08-06T08:47:01.533Z,101064.11
2018-08-06T08:49:34.909Z,101062.81
2018-08-06T08:52:08.224Z,101056.75
2018-08-06T08:54:41.564Z,101058.53
2018-08-06T08:57:14.966Z,101053.40
2018-08-06T08:59:48.306Z,101040.31
2018-08-06T09:02:21.646Z,101043.72
2018-08-06T09:04:54.968Z,101044.05
2018-08-06T09:07:28.365Z,101041.75
2018-08-06T09:10:01.789Z,101041.80
2018-08-06T09:12:35.111Z,101034.51
2018-08-06T09:15:11.185Z,101027.77
2018-08-06T09:17:44.725Z,101031.06
2018-08-06T09:20:18.416Z,101030.95
2018-08-06T09:22:51.781Z,101024.89
2018-08-06T09:25:25.166Z,101023.63
2018-08-06T09:27:58.549Z,101017.08
2018-08-06T09:30:31.870Z,101015.64
2018-08-06T09:33:05.228Z,101020.88
2018-08-06T09:35:38.565Z,101015.16
2018-08-06T09:38:11.998Z,101008.99
2018-08-06T09:40:45.306Z,101010.63
2018-08-06T09:43:18.728Z,101009.86
2018-08-06T09:45:52.074Z,100998.47
2018-08-06T09:48:25.498Z,101004.92
2018-08-06T09:50:58.812Z,100997.75
2018-08-06T09:53:32.201Z,101006.64
2018-08-06T09:56:05.606Z,101000.27
2018-08-06T09:58:38.980Z,100988.05
2018-08-06T10:01:17.441Z,100986.83
2018-08-06T10:03:50.830Z,100993.45
2018-08-06T10:06:24.297Z,100981.81
2018-08-06T10:08:57.688Z,100985.91
2018-08-06T10:11:30.997Z,100993.08
2018-08-06T10:14:04.417Z,100986.11
2018-08-06T10:16:37.808Z,100975.06
2018-08-06T10:19:11.244Z,100977.08
2018-08-06T10:21:44.544Z,100975.87
2018-08-06T10:24:18.056Z,100966.84
2018-08-06T10:26:51.336Z,100964.47
2018-08-06T10:29:24.688Z,100960.39
2018-08-06T10:31:58.115Z,100957.44
2018-08-06T10:34:31.445Z,100951.23
2018-08-06T10:37:05.158Z,100946.57
2018-08-06T10:39:38.524Z,100952.12
2018-08-06T10:42:11.848Z,100949.34
2018-08-06T10:44:46.004Z,100938.84
2018-08-06T10:47:19.493Z,100940.40
2018-08-06T10:49:52.834Z,100939.52
2018-08-06T10:52:26.254Z,100940.84
2018-08-06T10:54:59.626Z,100936.03
2018-08-06T10:57:32.980Z,100934.47
2018-08-06T11:00:10.328Z,100923.11
2018-08-06T11:02:43.753Z,100919.17
2018-08-06T11:05:17.653Z,100913.30
2018-08-06T11:07:51.082Z,100905.73
2018-08-06T11:10:24.877Z,100903.56
2018-08-06T11:12:58.965Z,100904.91
2018-08-06T11:15:32.295Z,100895.75
2018-08-06T11:18:05.729Z,100887.80
2018-08-06T11:20:39.049Z,100883.02
2018-08-06T11:23:12.433Z,100880.70
2018-08-06T11:25:45.749Z,100873.25
2018-08-06T11:28:19.078Z,100873.69
2018-08-06T11:30:52.396Z,100864.68
2018-08-06T11:33:25.744Z,100861.10
2018-08-06T11:35:59.433Z,100864.03
2018-08-06T11:41:11.444Z,100861.57
2018-08-06T11:43:45.054Z,100854.29
2018-08-06T11:46:18.368Z,100848.94
2018-08-06T11:48:51.685Z,100854.86
2018-08-06T11:51:25.001Z,100855.61
2018-08-06T11:53:58.292Z,100852.30
2018-08-06T11:56:31.670Z,100844.29
2018-08-06T11:59:05.020Z,100835.38
2018-08-06T12:01:38.357Z,100834.41
2018-08-06T12:04:11.683Z,100830.55
2018-08-06T12:06:45.030Z,100833.37
2018-08-06T12:09:18.451Z,100823.86
2018-08-06T12:11:51.776Z,100820.21
2018-08-06T12:14:25.080Z,100815.02
2018-08-06T12:16:58.444Z,100819.28
2018-08-06T12:19:31.765Z,100819.67
2018-08-06T12:22:05.173Z,100810.75
2018-08-06T12:24:38.498Z,100812.63
2018-08-06T12:27:11.885Z,100814.38
2018-08-06T12:29:45.188Z,100811.56
2018-08-06T12:32:18.573Z,100810.23
2018-08-06T12:34:51.957Z,100799.63
2018-08-06T12:37:25.301Z,100790.61
2018-08-06T12:39:58.651Z,100784.89
2018-08-06T12:42:31.963Z,100782.42
2018-08-06T12:45:06.677Z,100784.39
2018-08-06T12:47:40.457Z,100775.64
2018-08-06T12:50:14.915Z,100782.75
2018-08-06T12:52:48.261Z,100765.37
2018-08-06T12:55:21.673Z,100766.19
2018-08-06T12:57:54.988Z,100759.03
2018-08-06T13:00:28.440Z,100753.48
2018-08-06T13:03:01.881Z,100754.67
2018-08-06T13:05:35.569Z,100754.17
2018-08-06T13:08:08.915Z,100747.59
2018-08-06T13:10:42.255Z,100746.45
2018-08-06T13:13:15.624Z,100737.70
2018-08-06T13:15:48.991Z,100740.02
2018-08-06T13:18:22.321Z,100739.66
2018-08-06T13:20:55.636Z,100736.88
2018-08-06T13:23:29.001Z,100735.73
2018-08-06T13:26:02.362Z,100738.87
2018-08-06T13:28:35.761Z,100737.89
2018-08-06T13:31:09.271Z,100736.20
2018-08-06T13:33:42.688Z,100736.72
2018-08-06T13:36:16.098Z,100725.80
2018-08-06T13:38:49.441Z,100719.03
2018-08-06T13:41:22.760Z,100722.00
2018-08-06T13:43:56.093Z,100719.50
2018-08-06T13:46:29.439Z,100714.25
2018-08-06T13:49:02.828Z,100710.30
2018-08-06T13:51:36.343Z,100700.72
2018-08-06T13:54:10.197Z,100703.36
2018-08-06T13:56:43.667Z,100696.42
2018-08-06T13:59:17.215Z,100692.97
2018-08-06T14:01:50.414Z,100697.44
2018-08-06T14:04:23.740Z,100694.78
2018-08-06T14:06:57.061Z,100695.44
2018-08-06T14:09:30.405Z,100684.88
2018-08-06T14:12:03.750Z,100682.58
2018-08-06T14:14:37.220Z,100685.20
2018-08-06T14:17:10.656Z,100682.23
2018-08-06T14:19:44.032Z,100669.55
2018-08-06T14:22:17.324Z,100672.84
2018-08-06T14:24:50.631Z,100661.28
2018-08-06T14:27:23.961Z,100662.78
2018-08-06T14:29:57.308Z,100656.33
2018-08-06T14:32:30.657Z,100663.94
2018-08-06T14:35:04.375Z,100659.64
2018-08-06T14:37:37.791Z,100646.61
2018-08-06T14:40:13.808Z,100645.11
2018-08-06T14:42:47.563Z,100645.12
2018-08-06T14:45:20.875Z,100638.69
2018-08-06T14:47:54.186Z,100640.98
2018-08-06T14:50:27.488Z,100650.73
2018-08-06T14:53:00.806Z,100644.94
2018-08-06T14:55:34.097Z,100642.49
2018-08-06T14:58:07.463Z,100630.42
2018-08-06T15:00:40.808Z,100627.45
2018-08-06T15:03:14.138Z,100622.19
2018-08-06T15:05:47.459Z,100626.48
2018-08-06T15:08:20.796Z,100619.23
2018-08-06T15:10:54.162Z,100621.03
2018-08-06T15:13:27.449Z,100618.23
2018-08-06T15:16:00.765Z,100625.50
2018-08-06T15:18:34.096Z,100621.83
2018-08-06T15:21:07.655Z,100619.89
2018-08-06T15:23:41.093Z,100614.23
2018-08-06T15:26:14.400Z,100606.02
2018-08-06T15:28:47.732Z,100609.34
2018-08-06T15:31:21.057Z,100603.52
2018-08-06T15:33:54.407Z,100600.56
2018-08-06T15:36:27.990Z,100600.06
2018-08-06T15:39:01.329Z,100596.42
2018-08-06T15:41:34.642Z,100597.09
2018-08-06T15:44:08.014Z,100585.38
2018-08-06T15:46:41.336Z,100593.11
2018-08-06T15:49:14.676Z,100587.69
2018-08-06T15:51:47.976Z,100583.88
2018-08-06T15:54:21.310Z,100575.80
2018-08-06T15:56:54.654Z,100578.76
2018-08-06T15:59:28.076Z,100582.74
2018-08-06T16:02:01.381Z,100574.48
2018-08-06T16:04:34.693Z,100576.47
2018-08-06T16:07:08.057Z,100573.16
2018-08-06T16:09:41.376Z,100575.30
2018-08-06T16:12:14.663Z,100571.70
2018-08-06T16:14:47.980Z,100572.02
2018-08-06T16:17:21.297Z,100561.80
2018-08-06T16:19:54.664Z,100562.61
2018-08-06T16:22:27.988Z,100561.58
2018-08-06T16:25:01.451Z,100564.04
2018-08-06T16:27:35.065Z,100556.77
2018-08-06T16:30:19.934Z,100554.64
2018-08-06T16:32:53.609Z,100553.81
2018-08-06T16:35:26.926Z,100548.55
2018-08-06T16:39:29.504Z,100544.91
2018-08-06T16:42:03.137Z,100542.95
2018-08-06T16:44:36.917Z,100551.18
2018-08-06T16:47:10.264Z,100549.68
2018-08-06T16:49:43.664Z,100554.45
2018-08-06T16:52:17.004Z,100553.62
2018-08-06T16:54:50.384Z,100548.85
2018-08-06T16:57:23.710Z,100542.73
2018-08-06T16:59:57.044Z,100539.59
2018-08-06T17:02:30.362Z,100536.31
2018-08-06T17:05:03.737Z,100537.45
2018-08-06T17:07:37.138Z,100535.30
2018-08-06T17:10:12.979Z,100532.50
2018-08-06T17:12:47.441Z,100533.31
2018-08-06T17:15:21.736Z,100532.97
2018-08-06T17:17:56.015Z,100529.02
2018-08-06T17:20:29.357Z,100528.34
2018-08-06T17:23:02.660Z,100528.03
2018-08-06T17:25:35.982Z,100531.30
2018-08-06T17:28:09.332Z,100533.20
2018-08-06T17:30:42.676Z,100528.92
2018-08-06T17:33:16.006Z,100526.10
2018-08-06T17:35:49.336Z,100526.91
2018-08-06T17:38:22.705Z,100533.48
2018-08-06T17:40:56.030Z,100526.52
2018-08-06T17:43:29.345Z,100526.47
2018-08-06T17:46:02.705Z,100525.75
2018-08-06T17:48:36.057Z,100519.96
2018-08-06T17:51:09.393Z,100518.83
2018-08-06T17:53:42.741Z,100517.75
2018-08-06T17:56:16.539Z,100520.16
2018-08-06T17:58:49.935Z,100517.45
2018-08-06T18:01:23.805Z,100517.31
2018-08-06T18:03:57.552Z,100513.50
2018-08-06T18:06:30.888Z,100514.42
2018-08-06T18:09:05.940Z,100514.36
2018-08-06T18:11:39.275Z,100509.66
2018-08-06T18:14:12.625Z,100515.97
2018-08-06T18:16:46.413Z,100522.09
2018-08-06T18:19:19.809Z,100520.02
2018-08-06T18:21:53.173Z,100521.51
2018-08-06T18:24:26.656Z,100515.34
2018-08-06T18:26:59.979Z,100520.44
2018-08-06T18:29:34.356Z,100520.84
2018-08-06T18:32:07.684Z,100519.63
2018-08-06T18:34:41.597Z,100513.09
2018-08-06T18:37:15.022Z,100515.97
2018-08-06T18:39:49.592Z,100510.81
2018-08-06T18:42:23.048Z,100518.17
2018-08-06T18:44:56.432Z,100519.92
2018-08-06T18:47:29.773Z,100520.85
2018-08-06T18:50:03.205Z,100522.98
2018-08-06T18:52:36.557Z,100529.33
2018-08-06T18:55:12.586Z,100529.72
2018-08-06T18:57:47.460Z,100530.72
2018-08-06T19:00:22.672Z,100528.58
2018-08-06T19:02:55.981Z,100531.41
2018-08-06T19:05:29.521Z,100525.36
2018-08-06T19:08:03.028Z,100523.96
2018-08-06T19:10:36.756Z,100530.92
2018-08-06T19:13:15.318Z,100526.58
2018-08-06T19:15:48.653Z,100531.87
2018-08-06T19:18:27.253Z,100529.20
2018-08-06T19:21:00.607Z,100533.09
2018-08-06T19:23:33.937Z,100529.94
2018-08-06T19:26:14.720Z,100533.76
2018-08-06T19:28:48.121Z,100525.86
2018-08-06T19:31:27.674Z,100533.59
2018-08-06T19:34:00.969Z,100539.08
2018-08-06T19:36:39.618Z,100542.02
2018-08-06T19:39:12.970Z,100544.41
2018-08-06T19:41:46.381Z,100541.80
2018-08-06T19:44:19.736Z,100541.09
2018-08-06T19:46:53.079Z,100539.18
2018-08-06T19:49:31.720Z,100535.02
2018-08-06T19:52:05.113Z,100537.16
2018-08-06T19:54:38.440Z,100537.23
2018-08-06T19:57:12.371Z,100532.22
2018-08-06T19:59:45.709Z,100535.54
2018-08-06T20:02:19.059Z,100527.92
2018-08-06T20:04:52.870Z,100529.77
2018-08-06T20:07:26.317Z,100531.34
2018-08-06T20:10:00.405Z,100526.62
2018-08-06T20:12:33.737Z,100523.37
2018-08-06T20:15:10.635Z,100526.65
2018-08-06T20:17:43.968Z,100522.21
2018-08-06T20:20:17.320Z,100530.39
2018-08-06T20:22:50.617Z,100525.86
2018-08-06T20:25:23.937Z,100528.25
2018-08-06T20:27:57.257Z,100526.84
2018-08-06T20:30:30.582Z,100526.70
2018-08-06T20:33:04.399Z,100529.03
2018-08-06T20:35:37.698Z,100530.31
2018-08-06T20:38:11.025Z,100522.19
2018-08-06T20:40:44.379Z,100529.87
2018-08-06T20:43:17.701Z,100532.91
2018-08-06T20:45:50.988Z,100536.27
2018-08-06T20:48:24.333Z,100533.52
2018-08-06T20:50:57.675Z,100525.63
2018-08-06T20:53:31.085Z,100533.94
2018-08-06T20:56:04.511Z,100529.02
2018-08-06T20:58:37.877Z,100534.06
2018-08-06T21:01:11.169Z,100535.72
2018-08-06T21:03:44.524Z,100531.39
2018-08-06T21:06:17.830Z,100532.70
2018-08-06T21:08:51.189Z,100527.06
2018-08-06T21:11:24.513Z,100532.13
2018-08-06T21:13:57.879Z,100531.97
2018-08-06T21:16:31.210Z,100534.29
2018-08-06T21:19:04.634Z,100533.05
2018-08-06T21:21:38.021Z,100538.26
2018-08-06T21:24:11.367Z,100536.98
2018-08-06T21:26:44.718Z,100537.47
2018-08-06T21:29:18.069Z,100527.72
2018-08-06T21:31:51.410Z,100529.23
2018-08-06T21:34:24.772Z,100535.91
2018-08-06T21:36:58.100Z,100527.20
2018-08-06T21:39:31.471Z,100526.84
2018-08-06T21:42:04.826Z,100523.01
2018-08-06T21:44:38.164Z,100525.91
2018-08-06T21:47:11.647Z,100525.91
2018-08-06T21:49:45.006Z,100522.09
2018-08-06T21:52:18.399Z,100529.23
2018-08-06T21:54:51.702Z,100527.50
2018-08-06T21:57:25.160Z,100523.88
2018-08-06T21:59:58.565Z,100520.92
2018-08-06T22:02:31.963Z,100525.16
2018-08-06T22:05:06.797Z,100524.80
2018-08-06T22:07:40.133Z,100521.93
2018-08-06T22:10:13.500Z,100514.98
2018-08-06T22:12:46.872Z,100518.86
2018-08-06T22:15:20.352Z,100520.80
2018-08-06T22:17:53.796Z,100519.33
2018-08-06T22:20:27.107Z,100517.01
2018-08-06T22:23:00.441Z,100517.08
2018-08-06T22:25:33.785Z,100520.89
2018-08-06T22:28:08.673Z,100514.84
2018-08-06T22:30:42.018Z,100519.63
2018-08-06T22:33:15.411Z,100522.97
2018-08-06T22:35:48.749Z,100528.05
2018-08-06T22:38:22.073Z,100521.55
2018-08-06T22:40:55.397Z,100522.11
2018-08-06T22:43:28.719Z,100520.84
2018-08-06T22:46:02.049Z,100525.45
2018-08-06T22:48:35.509Z,100527.68
2018-08-06T22:51:08.942Z,100519.16
2018-08-06T22:53:42.357Z,100523.97
2018-08-06T22:56:15.657Z,100527.36
2018-08-06T22:58:49.013Z,100523.64
2018-08-06T23:01:22.350Z,100521.50
2018-08-06T23:03:55.738Z,100519.84
2018-08-06T23:06:29.130Z,100521.48
2018-08-06T23:09:02.508Z,100517.94
2018-08-06T23:11:35.873Z,100512.20
2018-08-06T23:14:09.484Z,100508.82
2018-08-06T23:16:42.809Z,100511.31
2018-08-06T23:19:16.131Z,100505.71
2018-08-06T23:21:49.446Z,100499.07
2018-08-06T23:24:22.785Z,100503.59
2018-08-06T23:26:56.093Z,100501.13
2018-08-06T23:29:29.509Z,100500.30
2018-08-06T23:32:02.808Z,100494.23
2018-08-06T23:34:36.152Z,100501.73
2018-08-06T23:37:09.476Z,100497.11
2018-08-06T23:39:42.875Z,100498.97
2018-08-06T23:42:16.225Z,100492.67
2018-08-06T23:44:49.556Z,100499.20
2018-08-06T23:47:22.903Z,100486.84
2018-08-06T23:49:56.262Z,100487.36
2018-08-06T23:52:29.593Z,100483.48
2018-08-06T23:55:02.985Z,100483.97
2018-08-06T23:57:36.500Z,100481.55
